Time;durP1;ratioP1;P1;durP2;ratioP2;P2;SDS_P1;SDS_P2;PMS_P1;PMS_P2;Temp;Humidity;BMP_temperature;BMP_pressure;BME280_temperature;BME280_humidity;BME280_pressure;Samples;Min_cycle;Max_cycle;Signal;HPM_P1;HPM_P2
2023/03/12 00:01:32;;;;;;;4.53;3.53;;;;;;;3.78;43.02;98764.88;5108175;28;20050;-74
2023/03/12 00:03:59;;;;;;;4.03;2.90;;;;;;;3.76;42.80;98766.69;5109475;28;20043;-73
2023/03/12 00:06:25;;;;;;;5.47;3.50;;;;;;;3.76;43.03;98777.19;5108291;28;20042;-71
2023/03/12 00:08:52;;;;;;;4.20;3.70;;;;;;;3.34;42.94;98712.34;5109324;28;20036;-70
2023/03/12 00:11:20;;;;;;;4.78;3.05;;;;;;;3.47;43.08;98736.31;5108205;28;20050;-74
2023/03/12 00:13:50;;;;;;;4.55;3.17;;;;;;;3.69;43.27;98781.78;5108084;28;20032;-74
2023/03/12 00:16:17;;;;;;;4.28;3.20;;;;;;;3.66;43.08;98788.91;5108964;28;20036;-74
2023/03/12 00:18:47;;;;;;;5.07;3.17;;;;;;;3.42;43.57;98756.59;5108877;28;20043;-74
2023/03/12 00:21:14;;;;;;;6.18;3.20;;;;;;;3.59;43.15;98788.28;5109165;28;20052;-74
2023/03/12 00:23:41;;;;;;;4.45;3.08;;;;;;;3.20;43.09;98730.31;5107997;28;20119;-74
2023/03/12 00:26:10;;;;;;;5.25;3.22;;;;;;;3.57;43.24;98799.72;5109260;28;20036;-74
2023/03/12 00:28:38;;;;;;;6.03;4.10;;;;;;;3.52;43.47;98790.25;5109253;28;20040;-74
2023/03/12 00:31:15;;;;;;;4.78;3.40;;;;;;;3.52;43.95;98800.75;5108996;28;20036;-74
2023/03/12 00:33:41;;;;;;;3.95;2.72;;;;;;;3.13;43.53;98731.44;5108261;28;20054;-74
2023/03/12 00:36:10;;;;;;;3.88;2.92;;;;;;;2.95;43.66;98714.59;5108878;28;20203;-74
2023/03/12 00:38:37;;;;;;;4.75;3.38;;;;;;;3.28;43.68;98757.06;5109349;28;20036;-73
2023/03/12 00:41:05;;;;;;;4.82;3.53;;;;;;;3.10;43.56;98735.00;5107992;28;20204;-74
2023/03/12 00:43:31;;;;;;;4.78;3.30;;;;;;;3.48;43.77;98796.53;5107165;28;20114;-74
2023/03/12 00:45:58;;;;;;;5.07;3.45;;;;;;;2.86;43.85;98694.81;5108428;28;20044;-74
2023/03/12 00:48:25;;;;;;;4.28;3.10;;;;;;;3.46;43.90;98800.97;5107518;28;20046;-74
2023/03/12 00:50:52;;;;;;;5.20;4.20;;;;;;;3.46;43.83;98805.34;5107541;28;20036;-74
2023/03/12 00:53:20;;;;;;;5.00;3.80;;;;;;;3.43;44.10;98803.69;5107719;28;20036;-74
2023/03/12 00:55:47;;;;;;;4.72;3.75;;;;;;;3.41;44.06;98804.66;5107234;28;20047;-74
2023/03/12 00:58:13;;;;;;;5.20;3.53;;;;;;;3.40;44.18;98803.78;5107380;28;20185;-74
2023/03/12 01:00:40;;;;;;;5.22;3.30;;;;;;;3.35;44.17;98800.47;5107581;28;20177;-74
2023/03/12 01:03:07;;;;;;;4.13;3.42;;;;;;;3.36;44.07;98811.81;5108382;28;20059;-74
2023/03/12 01:05:36;;;;;;;5.03;3.35;;;;;;;2.96;44.17;98752.09;5107474;28;20268;-74
2023/03/12 01:08:04;;;;;;;4.70;3.40;;;;;;;3.33;44.15;98815.38;5107981;28;20040;-74
2023/03/12 01:10:32;;;;;;;7.45;4.50;;;;;;;3.11;44.20;98772.50;5107100;28;20044;-74
2023/03/12 01:12:59;;;;;;;7.07;4.53;;;;;;;3.32;44.23;98815.44;5108439;28;20054;-73
2023/03/12 01:15:26;;;;;;;5.90;3.75;;;;;;;3.31;44.44;98821.59;5106958;28;20032;-74
2023/03/12 01:17:53;;;;;;;5.63;3.47;;;;;;;3.31;44.40;98819.81;5107570;28;20202;-74
2023/03/12 01:20:21;;;;;;;3.88;3.17;;;;;;;3.30;44.45;98819.88;5107770;28;20300;-74
2023/03/12 01:22:48;;;;;;;4.57;3.03;;;;;;;3.03;44.31;98770.16;5108263;28;20093;-74
2023/03/12 01:25:15;;;;;;;4.60;3.15;;;;;;;3.06;44.44;98800.63;5108195;28;20047;-74
2023/03/12 01:27:44;;;;;;;4.05;2.78;;;;;;;3.27;44.60;98812.97;5107893;28;20055;-74
2023/03/12 01:30:11;;;;;;;3.92;3.22;;;;;;;3.25;44.53;98816.56;5107555;28;20300;-74
2023/03/12 01:32:38;;;;;;;3.80;2.85;;;;;;;3.24;44.76;98827.94;5106908;28;20300;-74
2023/03/12 01:35:06;;;;;;;4.82;3.30;;;;;;;2.99;44.75;98793.88;5089893;28;20040;-74
2023/03/12 01:37:33;;;;;;;4.65;3.13;;;;;;;3.17;44.83;98841.25;5107934;28;20036;-74
2023/03/12 01:40:00;;;;;;;5.15;2.78;;;;;;;3.17;44.76;98850.88;5107920;28;20067;-74
2023/03/12 01:42:27;;;;;;;4.82;2.92;;;;;;;3.14;44.93;98851.81;5107974;28;20047;-74
2023/03/12 01:44:57;;;;;;;5.93;3.25;;;;;;;3.12;45.08;98848.41;5089749;28;20189;-74
2023/03/12 01:47:25;;;;;;;8.00;4.00;;;;;;;3.08;45.19;98846.78;5107256;28;20304;-74
2023/03/12 01:49:54;;;;;;;5.38;2.97;;;;;;;-0.46;44.84;98251.16;5107462;28;20126;-74
2023/03/12 01:52:23;;;;;;;5.10;2.80;;;;;;;2.90;45.18;98815.97;5107717;28;20050;-74
2023/03/12 01:54:55;;;;;;;4.70;2.67;;;;;;;3.00;45.30;98837.47;5105531;28;20119;-74
2023/03/12 01:57:26;;;;;;;4.72;3.17;;;;;;;2.99;45.12;98830.53;5106313;28;20039;-75
2023/03/12 01:59:57;;;;;;;4.95;2.90;;;;;;;2.95;45.10;98831.53;5107236;28;20050;-74
2023/03/12 02:02:27;;;;;;;3.47;2.80;;;;;;;2.95;45.30;98828.91;5106112;28;20040;-74
2023/03/12 02:05:03;;;;;;;5.35;3.53;;;;;;;2.91;45.50;98820.31;5107233;28;20089;-74
2023/03/12 02:07:30;;;;;;;4.10;3.10;;;;;;;2.90;45.36;98826.44;5106576;28;20052;-74
2023/03/12 02:09:57;;;;;;;5.55;4.10;;;;;;;2.91;45.19;98827.31;5105930;28;20300;-73
2023/03/12 02:12:24;;;;;;;4.95;3.70;;;;;;;2.89;45.27;98824.72;5106714;28;20046;-74
2023/03/12 02:14:51;;;;;;;6.68;3.60;;;;;;;2.85;45.17;98823.97;5105959;28;20044;-73
2023/03/12 02:17:19;;;;;;;5.35;3.33;;;;;;;2.93;45.32;98831.59;5105815;28;20031;-74
2023/03/12 02:19:56;;;;;;;4.68;3.50;;;;;;;2.64;45.89;98803.72;5105745;28;20040;-73
2023/03/12 02:22:23;;;;;;;5.28;3.28;;;;;;;2.88;45.32;98841.34;5105721;28;20181;-73
2023/03/12 02:24:56;;;;;;;4.72;3.17;;;;;;;2.86;45.67;98846.63;5105670;28;20032;-73
2023/03/12 02:27:25;;;;;;;4.80;3.10;;;;;;;2.01;45.30;98704.63;5106758;28;20181;-74
2023/03/12 02:29:54;;;;;;;7.40;4.03;;;;;;;2.82;45.46;98841.53;5106968;28;20058;-74
2023/03/12 02:32:26;;;;;;;5.65;3.63;;;;;;;2.80;45.42;98849.44;5106584;28;20043;-74
2023/03/12 02:34:53;;;;;;;6.30;3.58;;;;;;;2.73;45.42;98855.78;5106225;28;20062;-74
2023/03/12 02:37:20;;;;;;;5.55;3.83;;;;;;;2.73;45.50;98865.38;5106783;28;20044;-74
2023/03/12 02:39:51;;;;;;;5.57;3.47;;;;;;;2.54;45.88;98829.31;5105289;28;20215;-74
2023/03/12 02:42:19;;;;;;;5.63;3.42;;;;;;;2.70;45.56;98863.72;5106476;28;20191;-73
2023/03/12 02:44:47;;;;;;;5.10;3.60;;;;;;;2.70;45.71;98863.72;5105347;28;20040;-74
2023/03/12 02:47:14;;;;;;;5.93;3.45;;;;;;;2.69;45.68;98867.25;5105320;28;20058;-74
2023/03/12 02:49:41;;;;;;;5.68;3.50;;;;;;;2.68;45.67;98869.91;5105670;28;20184;-73
2023/03/12 02:52:08;;;;;;;5.28;3.38;;;;;;;2.67;45.79;98876.91;5106565;28;20051;-73
2023/03/12 02:54:35;;;;;;;5.43;3.70;;;;;;;2.68;45.64;98877.75;5104684;28;20097;-74
2023/03/12 02:57:02;;;;;;;6.10;3.80;;;;;;;2.68;45.78;98875.13;5106003;28;20107;-74
2023/03/12 02:59:28;;;;;;;4.35;3.35;;;;;;;2.66;45.92;98880.41;5105097;28;20066;-74
2023/03/12 03:01:59;;;;;;;4.75;3.22;;;;;;;2.62;45.91;98878.81;5106271;28;20046;-74
2023/03/12 03:04:27;;;;;;;5.22;3.65;;;;;;;2.64;45.62;98881.38;5105004;28;20035;-74
2023/03/12 03:06:53;;;;;;;4.65;3.10;;;;;;;2.63;45.71;98875.28;5104282;28;20036;-74
2023/03/12 03:09:21;;;;;;;4.40;3.10;;;;;;;2.22;45.77;98817.25;5106109;28;20051;-73
2023/03/12 03:11:48;;;;;;;5.75;3.45;;;;;;;2.65;45.60;98881.31;5104985;28;20207;-73
2023/03/12 03:14:14;;;;;;;5.05;3.38;;;;;;;2.65;45.69;98883.09;5105422;28;20211;-74
2023/03/12 03:16:41;;;;;;;4.82;3.53;;;;;;;2.65;45.60;98883.09;5105173;28;20040;-73
2023/03/12 03:19:10;;;;;;;4.45;3.25;;;;;;;2.37;45.81;98842.06;5105958;28;20052;-73
2023/03/12 03:21:37;;;;;;;5.70;3.45;;;;;;;2.00;45.83;98821.38;5106041;28;20055;-73
2023/03/12 03:24:04;;;;;;;6.68;3.50;;;;;;;2.60;45.89;98895.44;5105670;28;20090;-74
2023/03/12 03:26:31;;;;;;;3.85;2.88;;;;;;;2.59;45.77;98897.22;5105635;28;20054;-73
2023/03/12 03:28:58;;;;;;;6.03;3.30;;;;;;;2.56;45.80;98894.69;5106193;28;20040;-73
2023/03/12 03:31:25;;;;;;;5.10;3.53;;;;;;;2.54;45.79;98904.34;5104712;28;20036;-73
2023/03/12 03:33:52;;;;;;;4.53;3.35;;;;;;;2.48;46.04;98907.13;5104643;28;20224;-72
2023/03/12 03:36:22;;;;;;;3.92;3.28;;;;;;;2.46;46.00;98914.16;5104742;28;20275;-72
2023/03/12 03:38:49;;;;;;;6.82;4.15;;;;;;;2.47;45.84;98905.41;5106116;28;20115;-72
2023/03/12 03:41:17;;;;;;;5.00;3.67;;;;;;;2.46;45.99;98915.03;5104846;28;20044;-72
2023/03/12 03:43:44;;;;;;;5.07;3.25;;;;;;;2.45;45.81;98917.69;5105026;28;20119;-74
2023/03/12 03:46:12;;;;;;;7.55;3.60;;;;;;;2.42;46.16;98920.41;5105079;28;20044;-71
2023/03/12 03:48:40;;;;;;;8.23;4.82;;;;;;;2.17;46.11;98875.78;5105939;28;20040;-73
2023/03/12 03:51:09;;;;;;;5.30;3.13;;;;;;;2.39;46.20;98923.94;5105871;28;20044;-71
2023/03/12 03:53:37;;;;;;;5.43;3.58;;;;;;;2.03;46.17;98897.09;5104543;28;20044;-71
2023/03/12 03:56:08;;;;;;;5.22;3.53;;;;;;;2.12;46.46;98882.91;5105290;28;20050;-71
2023/03/12 03:58:35;;;;;;;5.68;3.38;;;;;;;2.38;46.04;98930.09;5105587;28;20039;-71
2023/03/12 04:01:02;;;;;;;4.10;2.92;;;;;;;1.54;46.00;98793.91;5105389;28;20044;-71
2023/03/12 04:03:29;;;;;;;4.68;3.45;;;;;;;2.19;46.05;98898.38;5104478;28;20036;-71
2023/03/12 04:06:00;;;;;;;4.85;3.58;;;;;;;2.32;46.25;98932.03;5105492;28;20044;-71
2023/03/12 04:08:28;;;;;;;6.07;3.67;;;;;;;1.31;46.22;98777.16;5105544;28;20310;-71
2023/03/12 04:10:56;;;;;;;5.28;3.33;;;;;;;2.33;46.26;98937.22;5105469;28;20189;-71
2023/03/12 04:13:23;;;;;;;5.70;3.40;;;;;;;2.32;46.09;98943.34;5105473;28;20050;-71
2023/03/12 04:15:51;;;;;;;5.40;3.03;;;;;;;2.34;46.17;98948.53;5105440;28;20040;-71
2023/03/12 04:18:19;;;;;;;4.97;3.47;;;;;;;2.34;46.19;98945.91;5106445;28;20044;-71
2023/03/12 04:20:46;;;;;;;4.80;3.85;;;;;;;2.34;46.09;98943.28;5108922;28;20195;-70
2023/03/12 04:23:12;;;;;;;4.70;3.88;;;;;;;2.32;46.28;98951.19;5108873;28;20040;-70
2023/03/12 04:25:40;;;;;;;5.63;3.90;;;;;;;2.31;46.36;98956.47;5109099;28;20036;-73
2023/03/12 04:28:08;;;;;;;5.45;3.92;;;;;;;2.31;46.37;98954.69;5109212;28;20044;-72
2023/03/12 04:30:37;;;;;;;4.75;3.65;;;;;;;2.31;46.21;98956.47;5107933;28;20200;-72
2023/03/12 04:33:04;;;;;;;4.60;3.20;;;;;;;2.31;46.17;98954.69;5109019;28;20051;-71
2023/03/12 04:35:30;;;;;;;5.38;3.85;;;;;;;2.30;46.33;98965.19;5108824;28;20038;-72
2023/03/12 04:37:57;;;;;;;5.60;3.72;;;;;;;2.30;46.37;98965.19;5107824;28;20335;-71
2023/03/12 04:40:24;;;;;;;7.72;4.63;;;;;;;2.30;46.22;98973.03;5108827;28;20043;-72
2023/03/12 04:42:51;;;;;;;6.35;3.53;;;;;;;2.29;46.37;98973.94;5108232;28;20168;-72
2023/03/12 04:45:19;;;;;;;6.15;3.72;;;;;;;2.26;46.24;98974.88;5109049;28;20047;-72
2023/03/12 04:47:46;;;;;;;5.70;3.83;;;;;;;2.26;46.22;98981.88;5109095;28;20044;-72
2023/03/12 04:50:13;;;;;;;4.90;3.45;;;;;;;2.24;46.40;98971.47;5108330;28;20040;-72
2023/03/12 04:52:39;;;;;;;5.38;3.40;;;;;;;2.03;46.39;98941.53;5108306;28;20075;-72
2023/03/12 04:55:08;;;;;;;5.90;4.10;;;;;;;2.00;46.27;98941.63;5108130;28;20054;-72
2023/03/12 04:57:34;;;;;;;4.15;3.45;;;;;;;2.20;46.48;98978.53;5107422;28;20050;-72
2023/03/12 05:00:01;;;;;;;5.47;3.42;;;;;;;1.95;46.32;98940.88;5108141;28;20204;-73
2023/03/12 05:02:29;;;;;;;4.72;3.28;;;;;;;2.19;46.48;98979.44;5108602;28;20074;-72
2023/03/12 05:04:57;;;;;;;5.90;3.30;;;;;;;2.19;46.49;98983.81;5115150;28;20107;-72
2023/03/12 05:07:24;;;;;;;4.07;3.30;;;;;;;2.18;46.33;98989.94;5115128;28;20051;-72
2023/03/12 05:09:50;;;;;;;5.53;3.90;;;;;;;2.16;46.43;98996.97;5114753;28;20057;-72
2023/03/12 05:12:17;;;;;;;4.97;3.53;;;;;;;2.13;46.40;98989.19;5114974;28;20050;-72
2023/03/12 05:14:44;;;;;;;5.07;3.45;;;;;;;2.11;46.38;98991.00;5114234;28;20039;-72
2023/03/12 05:17:11;;;;;;;5.82;3.78;;;;;;;2.09;46.40;98995.41;5113850;28;20040;-72
2023/03/12 05:19:39;;;;;;;5.90;3.83;;;;;;;2.08;46.47;99001.53;5113977;28;20039;-72
2023/03/12 05:22:05;;;;;;;6.15;3.63;;;;;;;2.04;46.53;99002.50;5114811;28;20044;-72
2023/03/12 05:24:32;;;;;;;5.82;3.38;;;;;;;2.02;46.81;99007.78;5113900;28;20036;-72
2023/03/12 05:26:59;;;;;;;5.07;3.58;;;;;;;1.98;46.81;99000.91;5114586;28;20048;-72
2023/03/12 05:29:26;;;;;;;6.72;4.30;;;;;;;1.79;46.87;98966.56;5113768;28;20050;-72
2023/03/12 05:31:53;;;;;;;4.78;3.47;;;;;;;1.96;46.75;99001.84;5114386;28;20050;-72
2023/03/12 05:34:19;;;;;;;7.80;4.35;;;;;;;1.97;46.69;99006.19;5114111;28;20040;-72
2023/03/12 05:36:47;;;;;;;5.25;3.97;;;;;;;1.94;47.01;99008.88;5114605;28;20048;-72
2023/03/12 05:39:14;;;;;;;6.28;3.95;;;;;;;1.92;47.07;99013.28;5113497;28;20218;-72
2023/03/12 05:41:41;;;;;;;8.52;4.93;;;;;;;1.84;47.26;99016.94;5114796;28;20035;-72
2023/03/12 05:44:12;;;;;;;6.65;3.90;;;;;;;1.61;47.43;98985.31;5114605;28;20044;-72
2023/03/12 05:46:39;;;;;;;5.93;4.20;;;;;;;1.28;47.42;98967.81;5114818;28;20190;-73
2023/03/12 05:49:05;;;;;;;5.90;4.22;;;;;;;1.76;47.47;99029.34;5113798;28;20049;-73
2023/03/12 05:51:32;;;;;;;6.25;3.58;;;;;;;1.18;47.35;98951.53;5114169;28;20050;-72
2023/03/12 05:54:00;;;;;;;5.53;3.75;;;;;;;1.58;47.42;99003.66;5113778;28;20044;-72
2023/03/12 05:56:27;;;;;;;6.07;4.03;;;;;;;1.70;47.42;99033.88;5109793;28;20300;-72
2023/03/12 05:58:54;;;;;;;5.53;4.47;;;;;;;1.73;47.65;99033.78;5109484;28;20051;-72
2023/03/12 06:01:24;;;;;;;4.45;3.50;;;;;;;1.73;47.38;99044.25;5111866;28;20040;-72
2023/03/12 06:03:51;;;;;;;8.00;4.30;;;;;;;1.57;47.37;99009.75;5111366;28;20036;-73
2023/03/12 06:06:18;;;;;;;5.10;3.42;;;;;;;1.76;47.12;99041.56;5110197;28;20036;-72
2023/03/12 06:08:45;;;;;;;6.15;3.45;;;;;;;1.36;46.94;98977.19;5107613;28;20035;-72
2023/03/12 06:11:13;;;;;;;5.38;3.70;;;;;;;1.84;47.08;99044.84;5107519;28;20043;-72
2023/03/12 06:13:40;;;;;;;5.78;3.40;;;;;;;1.90;46.79;99049.91;5106181;28;20050;-72
2023/03/12 06:16:11;;;;;;;5.93;3.42;;;;;;;2.00;46.82;99055.75;5107377;28;20036;-73
2023/03/12 06:18:38;;;;;;;5.18;3.95;;;;;;;2.09;46.58;99045.94;5106914;28;20039;-72
2023/03/12 06:21:11;;;;;;;5.82;3.92;;;;;;;2.20;47.08;99056.97;5106817;28;20231;-73
2023/03/12 06:23:38;;;;;;;5.03;4.00;;;;;;;2.31;46.46;99058.44;5107215;28;20040;-72
2023/03/12 06:26:06;;;;;;;4.60;3.50;;;;;;;2.42;46.43;99059.88;5106536;28;20040;-72
2023/03/12 06:28:34;;;;;;;6.57;4.15;;;;;;;2.52;46.24;99063.94;5106648;28;20039;-72
2023/03/12 06:31:01;;;;;;;5.63;3.47;;;;;;;2.63;46.14;99065.41;5106310;28;20048;-73
2023/03/12 06:33:28;;;;;;;5.40;3.67;;;;;;;2.77;45.89;99053.66;5105666;28;20075;-73
2023/03/12 06:35:56;;;;;;;5.72;3.42;;;;;;;2.93;45.74;99061.94;5106921;28;20054;-73
2023/03/12 06:38:23;;;;;;;4.85;3.33;;;;;;;2.96;45.70;99063.59;5106646;28;20040;-73
2023/03/12 06:40:58;;;;;;;5.82;3.78;;;;;;;2.99;46.14;99066.13;5106120;28;20051;-72
2023/03/12 06:43:26;;;;;;;5.35;3.75;;;;;;;3.04;45.49;99072.09;5106531;28;20038;-72
2023/03/12 06:45:56;;;;;;;5.63;3.75;;;;;;;2.95;45.41;99036.56;5106744;28;20040;-73
2023/03/12 06:48:23;;;;;;;4.57;3.47;;;;;;;3.38;45.38;99069.31;5106356;28;20173;-72
2023/03/12 06:50:50;;;;;;;4.32;3.05;;;;;;;3.00;44.70;98986.69;5105348;28;20039;-72
2023/03/12 06:53:17;;;;;;;4.65;3.15;;;;;;;3.80;44.50;99064.50;5106112;28;20043;-73
2023/03/12 06:55:44;;;;;;;5.53;3.20;;;;;;;4.08;44.07;99074.94;5104933;28;20048;-73
2023/03/12 06:58:11;;;;;;;4.68;3.15;;;;;;;4.35;43.78;99068.78;5106249;28;20052;-73
2023/03/12 07:00:37;;;;;;;4.45;2.85;;;;;;;4.49;43.04;99039.44;5104905;28;20062;-73
2023/03/12 07:03:05;;;;;;;4.45;2.92;;;;;;;4.96;42.55;99069.25;5106166;28;20251;-73
2023/03/12 07:05:32;;;;;;;4.32;2.92;;;;;;;5.26;42.32;99062.00;5106289;28;20105;-72
2023/03/12 07:07:59;;;;;;;5.95;3.42;;;;;;;4.97;41.59;98994.81;5105805;28;20036;-72
2023/03/12 07:10:27;;;;;;;4.85;2.65;;;;;;;5.82;41.30;99060.69;5106353;28;20044;-73
2023/03/12 07:12:53;;;;;;;4.00;2.33;;;;;;;6.02;40.81;99056.31;5106004;28;20071;-73
2023/03/12 07:15:20;;;;;;;3.70;2.72;;;;;;;6.04;40.57;99015.00;5105937;28;20048;-74
2023/03/12 07:17:47;;;;;;;4.70;2.50;;;;;;;6.55;40.04;99057.59;5106051;28;20040;-73
2023/03/12 07:20:15;;;;;;;4.03;2.58;;;;;;;6.73;39.47;99062.91;5106337;28;20047;-73
2023/03/12 07:22:42;;;;;;;4.32;2.67;;;;;;;6.82;39.27;99051.13;5106193;28;20036;-73
2023/03/12 07:25:12;;;;;;;3.33;2.30;;;;;;;6.99;39.63;99058.28;5106518;28;20051;-73
2023/03/12 07:27:38;;;;;;;4.70;2.45;;;;;;;6.85;39.30;99011.50;5107327;28;20319;-72
2023/03/12 07:30:06;;;;;;;6.53;3.00;;;;;;;7.23;39.18;99059.78;5106390;28;20040;-73
2023/03/12 07:32:35;;;;;;;4.82;3.28;;;;;;;7.37;39.09;99059.19;5105658;28;20101;-72
2023/03/12 07:35:02;;;;;;;3.45;2.20;;;;;;;7.52;38.98;99057.59;5105897;28;20040;-72
2023/03/12 07:37:30;;;;;;;3.58;2.30;;;;;;;7.72;38.59;99057.50;5105195;28;20054;-72
2023/03/12 07:39:57;;;;;;;3.30;2.33;;;;;;;7.92;38.57;99057.41;5105755;28;20044;-73
2023/03/12 07:42:24;;;;;;;6.43;2.50;;;;;;;8.02;38.40;99040.19;5104603;28;20304;-73
2023/03/12 07:44:50;;;;;;;5.25;2.80;;;;;;;8.27;38.04;99062.72;5105510;28;20037;-73
2023/03/12 07:47:17;;;;;;;4.43;2.80;;;;;;;8.46;37.89;99060.84;5104628;28;20036;-73
2023/03/12 07:49:44;;;;;;;3.90;2.35;;;;;;;8.65;37.80;99060.75;5105878;28;20052;-73
2023/03/12 07:52:11;;;;;;;3.70;2.22;;;;;;;8.87;37.66;99063.13;5105826;28;20188;-73
2023/03/12 07:54:39;;;;;;;3.78;2.25;;;;;;;9.07;37.17;99057.63;5109619;28;20044;-73
2023/03/12 07:57:06;;;;;;;4.65;2.70;;;;;;;9.15;37.28;99055.44;5109615;28;20044;-73
2023/03/12 07:59:33;;;;;;;5.78;2.88;;;;;;;9.22;37.11;99062.13;5109833;28;20039;-73
2023/03/12 08:02:00;;;;;;;3.20;2.13;;;;;;;9.28;36.84;99063.56;5109789;28;20048;-72
2023/03/12 08:04:27;;;;;;;4.22;2.70;;;;;;;9.39;36.81;99065.63;5109408;28;20064;-73
2023/03/12 08:06:53;;;;;;;4.60;2.22;;;;;;;9.47;36.81;99116.34;5108959;28;20040;-72
2023/03/12 08:09:20;;;;;;;2.95;1.95;;;;;;;9.59;36.43;99060.13;5108148;28;20331;-73
2023/03/12 08:11:48;;;;;;;3.97;2.42;;;;;;;9.67;36.15;99049.97;5108669;28;20044;-73
2023/03/12 08:14:15;;;;;;;2.95;2.25;;;;;;;9.82;36.33;99059.69;5091434;28;20319;-73
2023/03/12 08:16:42;;;;;;;3.25;2.05;;;;;;;9.94;36.14;99059.00;5109143;28;20040;-73
2023/03/12 08:19:09;;;;;;;3.40;2.25;;;;;;;9.80;35.84;99015.72;5109116;28;20050;-73
2023/03/12 08:21:36;;;;;;;4.07;2.83;;;;;;;10.06;35.88;99056.59;5108090;28;20371;-73
2023/03/12 08:24:03;;;;;;;4.18;2.30;;;;;;;10.17;35.53;99047.06;5109294;28;20043;-74
2023/03/12 08:26:30;;;;;;;3.35;2.28;;;;;;;10.34;35.40;99056.69;5107945;28;20048;-74
2023/03/12 08:28:59;;;;;;;3.40;2.13;;;;;;;10.18;34.67;99005.56;5109031;28;20228;-73
2023/03/12 08:31:26;;;;;;;3.83;2.67;;;;;;;10.31;35.07;99022.44;5109037;28;20044;-73
2023/03/12 08:33:53;;;;;;;5.03;2.90;;;;;;;10.71;34.65;99058.00;5108682;28;20048;-74
2023/03/12 08:36:20;;;;;;;3.42;2.30;;;;;;;10.77;34.50;99059.41;5109026;28;20107;-73
2023/03/12 08:38:47;;;;;;;4.28;3.05;;;;;;;10.95;34.35;99052.16;5108966;28;20289;-73
2023/03/12 08:41:14;;;;;;;3.65;2.42;;;;;;;11.13;33.96;99054.53;5108813;28;20043;-73
2023/03/12 08:43:40;;;;;;;3.92;2.40;;;;;;;10.85;34.02;98972.34;5107846;28;20036;-74
2023/03/12 08:46:09;;;;;;;5.00;2.35;;;;;;;11.43;33.19;99054.41;5108698;28;20036;-74
2023/03/12 08:48:36;;;;;;;4.13;2.55;;;;;;;10.93;33.32;98987.78;5107783;28;20036;-73
2023/03/12 08:51:04;;;;;;;4.72;2.38;;;;;;;11.47;33.06;99050.63;5107810;28;20032;-74
2023/03/12 08:53:32;;;;;;;3.20;2.00;;;;;;;11.34;33.47;99055.00;5107884;28;20046;-74
2023/03/12 08:56:00;;;;;;;3.80;2.20;;;;;;;11.36;33.27;99057.56;5108346;28;20293;-74
2023/03/12 08:58:27;;;;;;;4.32;2.08;;;;;;;11.28;33.37;99062.50;5108517;28;20051;-73
2023/03/12 09:00:55;;;;;;;5.47;3.70;;;;;;;11.23;33.21;99060.97;5108276;28;20040;-74
2023/03/12 09:03:24;;;;;;;4.10;2.60;;;;;;;11.44;32.81;99068.53;5108484;28;20046;-73
2023/03/12 09:05:51;;;;;;;3.33;1.70;;;;;;;10.80;32.55;98937.31;5107427;28;20047;-74
2023/03/12 09:08:18;;;;;;;3.00;1.95;;;;;;;11.70;32.18;99067.72;5108216;28;20115;-73
2023/03/12 09:10:49;;;;;;;3.05;1.90;;;;;;;11.79;30.70;99067.13;5107403;28;20082;-74
2023/03/12 09:13:16;;;;;;;3.40;1.92;;;;;;;11.81;31.70;99067.88;5108425;28;20090;-74
2023/03/12 09:15:42;;;;;;;3.40;1.77;;;;;;;11.86;31.58;99065.78;5108472;28;20051;-74
2023/03/12 09:18:09;;;;;;;3.50;2.05;;;;;;;11.76;31.78;99064.69;5107958;28;20036;-74
2023/03/12 09:20:37;;;;;;;3.15;1.92;;;;;;;11.73;31.50;99066.69;5107098;28;20267;-74
2023/03/12 09:23:04;;;;;;;2.88;2.13;;;;;;;11.84;31.40;99059.72;5107922;28;20046;-74
2023/03/12 09:25:31;;;;;;;4.35;2.05;;;;;;;12.02;31.66;99068.31;5108516;28;20051;-74
2023/03/12 09:28:01;;;;;;;3.58;2.30;;;;;;;12.02;31.23;99057.69;5106924;28;20036;-74
2023/03/12 09:30:29;;;;;;;4.18;2.00;;;;;;;11.28;31.13;98957.22;5107876;28;20032;-74
2023/03/12 09:32:55;;;;;;;3.97;2.17;;;;;;;11.94;31.23;99064.44;5106813;28;20044;-74
2023/03/12 09:35:22;;;;;;;3.15;2.00;;;;;;;11.85;31.21;99061.44;5108283;28;20040;-76
2023/03/12 09:37:51;;;;;;;4.32;2.17;;;;;;;11.83;31.05;99065.13;5107911;28;20036;-74
2023/03/12 09:40:22;;;;;;;3.85;2.38;;;;;;;11.84;30.89;99058.88;5107469;28;20063;-74
2023/03/12 09:42:53;;;;;;;7.43;2.42;;;;;;;11.91;30.60;99086.72;5107235;28;20043;-74
2023/03/12 09:45:22;;;;;;;3.80;2.33;;;;;;;11.86;30.69;99071.09;5107840;28;20048;-73
2023/03/12 09:47:52;;;;;;;3.60;2.30;;;;;;;11.64;30.64;99044.22;5107610;28;20028;-74
2023/03/12 09:50:27;;;;;;;4.07;2.53;;;;;;;11.81;29.39;99073.19;5107467;28;20082;-74
2023/03/12 09:52:59;;;;;;;4.57;2.50;;;;;;;11.94;29.34;99064.44;5089901;28;20044;-73
2023/03/12 09:55:28;;;;;;;3.90;2.70;;;;;;;11.97;30.53;99059.78;5107224;28;20063;-74
2023/03/12 09:57:58;;;;;;;3.75;2.47;;;;;;;11.20;30.59;98935.66;5105899;28;20048;-74
2023/03/12 10:00:30;;;;;;;3.90;2.60;;;;;;;12.09;30.07;99028.94;5106118;28;20111;-74
2023/03/12 10:03:21;;;;;;;5.53;2.50;;;;;;;11.83;28.08;98956.28;5107277;28;20055;-74
2023/03/12 10:05:57;;;;;;;4.25;2.50;;;;;;;12.50;29.28;99047.44;5106274;28;20035;-74
2023/03/12 10:08:35;;;;;;;3.47;2.20;;;;;;;12.62;28.98;99056.38;5106490;28;20315;-74
2023/03/12 10:11:11;;;;;;;6.13;2.80;;;;;;;12.59;29.62;99046.81;5106757;28;20040;-73
2023/03/12 10:13:53;;;;;;;3.13;2.20;;;;;;;12.62;28.03;99048.41;5106780;28;20062;-74
2023/03/12 10:16:34;;;;;;;3.65;2.35;;;;;;;12.33;27.73;98981.28;5105809;28;20169;-74
2023/03/12 10:19:13;;;;;;;4.13;3.05;;;;;;;12.18;28.50;98962.78;5106537;28;20052;-74
2023/03/12 10:21:47;;;;;;;4.43;2.67;;;;;;;12.86;28.33;99046.72;5106723;28;20040;-74
2023/03/12 10:27:15;;;;;;;5.15;2.75;;;;;;;12.53;29.15;99041.91;5124745;27;20632;-73
2023/03/12 10:29:44;;;;;;;4.30;2.63;;;;;;;12.54;29.65;99035.66;5122603;28;20197;-74
2023/03/12 10:32:16;;;;;;;5.03;2.72;;;;;;;12.08;29.18;98940.41;5123308;28;20110;-73
2023/03/12 10:34:46;;;;;;;4.32;2.42;;;;;;;12.76;28.55;99043.00;5123269;28;20044;-74
2023/03/12 10:37:17;;;;;;;4.38;2.78;;;;;;;12.33;29.31;98982.16;5123233;28;20110;-74
2023/03/12 10:39:45;;;;;;;3.92;2.55;;;;;;;12.46;29.47;99000.75;5123940;28;20047;-74
2023/03/12 10:42:19;;;;;;;3.60;2.63;;;;;;;12.72;28.88;99031.72;5122623;28;20122;-74
2023/03/12 10:44:49;;;;;;;4.70;3.40;;;;;;;12.71;29.46;99030.03;5123515;28;20317;-73
2023/03/12 10:47:34;;;;;;;4.03;2.22;;;;;;;12.67;27.00;99014.38;5123059;28;20177;-73
2023/03/12 10:50:16;;;;;;;4.00;2.38;;;;;;;12.77;27.38;99015.44;5123061;28;20040;-74
2023/03/12 10:52:44;;;;;;;5.50;2.55;;;;;;;12.28;29.24;98903.69;5122265;28;20123;-75
2023/03/12 10:55:19;;;;;;;3.40;2.75;;;;;;;12.92;29.02;99017.03;5122887;28;20303;-75
2023/03/12 10:57:48;;;;;;;5.88;2.63;;;;;;;12.90;29.15;99024.28;5123123;28;20062;-75
2023/03/12 11:00:20;;;;;;;5.55;2.72;;;;;;;12.73;27.92;98974.94;5105182;28;20074;-74
2023/03/12 11:02:57;;;;;;;5.22;3.00;;;;;;;13.10;27.47;99007.75;5123281;28;20061;-74
2023/03/12 11:05:27;;;;;;;3.90;2.80;;;;;;;13.16;29.04;98983.38;5122222;27;20051;-74
2023/03/12 11:07:54;;;;;;;5.07;2.88;;;;;;;13.28;29.18;99000.28;5121911;28;20051;-74
2023/03/12 11:10:23;;;;;;;3.70;2.67;;;;;;;11.98;28.95;98768.50;5122883;28;20111;-74
2023/03/12 11:12:59;;;;;;;4.50;2.70;;;;;;;13.38;27.64;98992.47;5121906;28;20040;-74
2023/03/12 11:15:28;;;;;;;4.20;2.78;;;;;;;13.33;28.75;98984.81;5121948;28;20119;-74
2023/03/12 11:18:19;;;;;;;4.43;2.60;;;;;;;13.41;26.82;98987.78;5123000;28;20307;-75
2023/03/12 11:20:46;;;;;;;4.50;2.83;;;;;;;13.47;28.74;98986.53;5122250;28;20063;-74
2023/03/12 11:23:15;;;;;;;3.55;2.78;;;;;;;13.41;28.84;98968.31;5121858;28;20308;-74
2023/03/12 11:25:42;;;;;;;4.43;2.80;;;;;;;13.42;28.55;98972.69;5121458;28;20044;-74
2023/03/12 11:28:21;;;;;;;4.28;3.00;;;;;;;13.37;27.41;98970.34;5122643;28;20096;-74
2023/03/12 11:30:50;;;;;;;4.80;3.78;;;;;;;13.34;28.95;98965.22;5121424;28;20063;-74
2023/03/12 11:33:16;;;;;;;4.38;3.13;;;;;;;13.37;28.88;98954.38;5122209;28;20051;-74
2023/03/12 11:35:55;;;;;;;6.53;2.97;;;;;;;13.40;27.58;98963.94;5122117;28;20040;-74
2023/03/12 11:38:31;;;;;;;3.95;3.05;;;;;;;12.58;26.99;98831.59;5109371;28;20099;-74
2023/03/12 11:41:10;;;;;;;5.30;3.20;;;;;;;12.25;27.28;98769.25;5108366;28;20032;-73
2023/03/12 11:44:09;;;;;;;5.03;2.80;;;;;;;13.27;26.43;98949.81;5108057;28;20113;-73
2023/03/12 11:46:49;;;;;;;4.85;3.75;;;;;;;13.13;27.24;98945.50;5108209;28;20040;-74
2023/03/12 11:49:30;;;;;;;4.15;3.30;;;;;;;12.91;27.24;98938.19;5107272;28;20040;-73